createdAt,value
2018-07-27T00:01:12.470Z,59.70
2018-07-27T00:04:08.634Z,60.80
2018-07-27T00:07:05.130Z,60.20
2018-07-27T00:10:01.550Z,60.10
2018-07-27T00:12:58.007Z,60.10
2018-07-27T00:15:55.003Z,60.10
2018-07-27T00:18:51.395Z,60.30
2018-07-27T00:21:47.471Z,60.40
2018-07-27T00:24:43.603Z,60.80
2018-07-27T00:27:40.129Z,60.90
2018-07-27T00:30:36.208Z,61.10
2018-07-27T00:33:32.590Z,61.40
2018-07-27T00:36:28.856Z,61.60
2018-07-27T00:39:25.365Z,61.70
2018-07-27T00:42:21.801Z,61.20
2018-07-27T00:45:17.962Z,61.10
2018-07-27T00:48:14.350Z,61.00
2018-07-27T00:51:10.433Z,61.20
2018-07-27T00:54:06.838Z,61.60
2018-07-27T00:57:03.102Z,61.20
2018-07-27T00:59:59.684Z,61.70
2018-07-27T01:02:56.090Z,61.50
2018-07-27T01:05:52.835Z,61.40
2018-07-27T01:08:49.420Z,61.30
2018-07-27T01:11:45.515Z,61.30
2018-07-27T01:14:42.190Z,61.10
2018-07-27T01:17:38.981Z,61.00
2018-07-27T01:20:35.733Z,61.10
2018-07-27T01:23:32.019Z,61.10
2018-07-27T01:26:28.615Z,60.70
2018-07-27T01:29:25.255Z,60.60
2018-07-27T01:32:21.634Z,60.70
2018-07-27T01:35:18.084Z,60.60
2018-07-27T01:38:14.255Z,61.10
2018-07-27T01:41:11.004Z,61.30
2018-07-27T01:44:07.505Z,61.80
2018-07-27T01:47:03.871Z,61.70
2018-07-27T01:50:00.234Z,62.00
2018-07-27T01:52:56.695Z,62.40
2018-07-27T01:55:52.788Z,62.70
2018-07-27T01:58:48.858Z,62.70
2018-07-27T02:01:45.278Z,62.70
2018-07-27T02:04:42.266Z,63.20
2018-07-27T02:07:38.468Z,63.00
2018-07-27T02:10:34.841Z,63.20
2018-07-27T02:13:31.651Z,62.90
2018-07-27T02:16:28.075Z,63.50
2018-07-27T02:19:24.139Z,63.70
2018-07-27T02:22:20.659Z,64.00
2018-07-27T02:25:18.151Z,63.80
2018-07-27T02:28:14.255Z,64.30
2018-07-27T02:31:10.804Z,64.30
2018-07-27T02:34:07.750Z,64.20
2018-07-27T02:37:04.557Z,64.30
2018-07-27T02:40:01.364Z,64.40
2018-07-27T02:42:58.111Z,64.60
2018-07-27T02:45:54.691Z,64.60
2018-07-27T02:48:51.110Z,64.90
2018-07-27T02:51:47.181Z,65.00
2018-07-27T02:54:43.936Z,65.20
2018-07-27T02:57:40.773Z,65.20
2018-07-27T03:00:37.560Z,65.30
2018-07-27T03:03:34.418Z,65.50
2018-07-27T03:06:31.098Z,65.70
2018-07-27T03:09:27.899Z,65.90
2018-07-27T03:12:24.598Z,66.00
2018-07-27T03:15:21.133Z,66.20
2018-07-27T03:18:17.663Z,66.20
2018-07-27T03:21:14.045Z,66.40
2018-07-27T03:24:10.964Z,66.90
2018-07-27T03:27:07.797Z,67.10
2018-07-27T03:30:05.085Z,67.30
2018-07-27T03:33:01.503Z,67.40
2018-07-27T03:35:57.888Z,67.50
2018-07-27T03:38:54.733Z,68.00
2018-07-27T03:41:51.596Z,68.40
2018-07-27T03:44:48.188Z,68.40
2018-07-27T03:47:44.264Z,68.90
2018-07-27T03:50:41.772Z,68.50
2018-07-27T03:53:38.316Z,67.80
2018-07-27T03:56:34.833Z,68.90
2018-07-27T03:59:31.237Z,69.30
2018-07-27T04:05:23.357Z,69.70
2018-07-27T04:08:19.841Z,69.20
2018-07-27T04:11:16.218Z,69.00
2018-07-27T04:14:12.344Z,68.40
2018-07-27T04:17:08.851Z,68.70
2018-07-27T04:20:05.746Z,68.90
2018-07-27T04:23:02.477Z,69.20
2018-07-27T04:25:59.122Z,69.10
2018-07-27T04:28:55.907Z,68.10
2018-07-27T04:31:52.622Z,68.50
2018-07-27T04:34:49.479Z,68.60
2018-07-27T04:37:46.139Z,67.70
2018-07-27T04:40:42.828Z,67.80
2018-07-27T04:43:39.068Z,67.70
2018-07-27T04:46:35.573Z,67.50
2018-07-27T04:49:32.403Z,66.70
2018-07-27T04:52:29.320Z,66.00
2018-07-27T04:55:25.719Z,65.60
2018-07-27T04:58:22.518Z,65.30
2018-07-27T05:01:18.868Z,64.30
2018-07-27T05:04:15.456Z,65.30
2018-07-27T05:07:11.873Z,65.10
2018-07-27T05:10:13.597Z,64.90
2018-07-27T05:13:09.988Z,64.50
2018-07-27T05:16:06.396Z,64.50
2018-07-27T05:19:03.281Z,64.70
2018-07-27T05:21:59.749Z,64.60
2018-07-27T05:24:56.421Z,64.40
2018-07-27T05:27:52.841Z,64.40
2018-07-27T05:30:48.915Z,64.00
2018-07-27T05:33:47.443Z,63.70
2018-07-27T05:36:44.187Z,63.30
2018-07-27T05:39:40.584Z,63.20
2018-07-27T05:42:37.013Z,62.90
2018-07-27T05:45:33.415Z,63.00
2018-07-27T05:51:25.866Z,62.20
2018-07-27T05:54:22.056Z,62.00
2018-07-27T05:57:18.436Z,61.40
2018-07-27T06:03:11.073Z,61.00
2018-07-27T06:06:07.558Z,60.40
2018-07-27T06:09:04.475Z,59.20
2018-07-27T06:12:00.650Z,56.80
2018-07-27T06:14:59.763Z,53.70
2018-07-27T06:17:56.090Z,52.10
2018-07-27T06:20:52.146Z,49.80
2018-07-27T06:23:48.425Z,47.70
2018-07-27T06:26:44.480Z,46.70
2018-07-27T06:29:41.191Z,45.10
2018-07-27T06:35:34.051Z,42.90
2018-07-27T06:38:30.131Z,42.10
2018-07-27T06:41:26.216Z,41.90
2018-07-27T06:44:23.031Z,40.60
2018-07-27T06:47:19.134Z,39.50
2018-07-27T06:50:16.022Z,38.20
2018-07-27T06:53:12.421Z,38.30
2018-07-27T06:56:08.492Z,37.80
2018-07-27T06:59:05.193Z,37.70
2018-07-27T07:02:01.344Z,36.40
2018-07-27T07:04:58.093Z,36.50
2018-07-27T07:07:54.651Z,35.70
2018-07-27T07:10:50.842Z,34.90
2018-07-27T07:13:47.504Z,34.60
2018-07-27T07:16:43.983Z,34.20
2018-07-27T07:19:40.094Z,34.70
2018-07-27T07:22:36.824Z,34.50
2018-07-27T07:25:33.119Z,34.00
2018-07-27T07:28:29.132Z,33.40
2018-07-27T07:31:25.903Z,33.30
2018-07-27T07:34:22.678Z,32.70
2018-07-27T07:37:19.303Z,32.20
2018-07-27T07:40:16.101Z,31.70
2018-07-27T07:43:12.520Z,31.40
2018-07-27T07:46:09.539Z,30.60
2018-07-27T07:49:06.697Z,30.60
2018-07-27T07:52:03.490Z,31.00
2018-07-27T07:54:59.587Z,31.00
2018-07-27T07:57:56.494Z,30.60
2018-07-27T08:00:52.863Z,30.80
2018-07-27T08:03:49.243Z,30.30
2018-07-27T08:06:45.978Z,29.90
2018-07-27T08:09:42.374Z,29.70
2018-07-27T08:12:38.773Z,30.00
2018-07-27T08:15:34.871Z,29.40
2018-07-27T08:18:31.328Z,28.90
2018-07-27T08:21:28.432Z,28.20
2018-07-27T08:24:25.344Z,28.00
2018-07-27T08:27:21.739Z,27.70
2018-07-27T08:30:18.140Z,28.20
2018-07-27T08:33:14.244Z,28.40
2018-07-27T08:36:10.729Z,28.30
2018-07-27T08:39:08.988Z,27.60
2018-07-27T08:42:05.833Z,27.10
2018-07-27T08:45:02.670Z,27.40
2018-07-27T08:47:59.058Z,27.40
2018-07-27T08:50:55.429Z,27.10
2018-07-27T08:53:51.536Z,26.70
2018-07-27T08:56:47.929Z,25.80
2018-07-27T08:59:44.097Z,26.40
2018-07-27T09:02:40.469Z,26.50
2018-07-27T09:05:36.555Z,26.60
2018-07-27T09:08:32.956Z,26.40
2018-07-27T09:11:29.363Z,26.20
2018-07-27T09:14:25.453Z,26.20
2018-07-27T09:17:21.851Z,26.40
2018-07-27T09:20:18.241Z,25.90
2018-07-27T09:23:14.318Z,26.20
2018-07-27T09:26:10.761Z,26.80
2018-07-27T09:29:06.830Z,26.40
2018-07-27T09:34:59.245Z,27.40
2018-07-27T09:37:55.314Z,27.50
2018-07-27T09:40:51.722Z,28.30
2018-07-27T09:43:47.802Z,29.10
2018-07-27T09:46:44.184Z,30.00
2018-07-27T09:49:41.045Z,30.00
2018-07-27T09:52:37.784Z,30.20
2018-07-27T09:55:34.465Z,30.60
2018-07-27T09:58:30.832Z,31.40
2018-07-27T10:01:28.510Z,32.00
2018-07-27T10:04:25.644Z,33.00
2018-07-27T10:07:21.748Z,33.00
2018-07-27T10:10:18.524Z,33.30
2018-07-27T10:13:14.616Z,33.20
2018-07-27T10:16:11.015Z,33.90
2018-07-27T10:19:07.087Z,34.60
2018-07-27T10:22:03.905Z,34.00
2018-07-27T10:25:00.307Z,33.50
2018-07-27T10:27:56.402Z,33.80
2018-07-27T10:30:53.227Z,33.80
2018-07-27T10:33:49.617Z,31.80
2018-07-27T10:36:45.698Z,32.40
2018-07-27T10:39:44.777Z,32.90
2018-07-27T10:42:40.873Z,32.50
2018-07-27T10:45:37.627Z,33.10
2018-07-27T10:48:34.090Z,32.60
2018-07-27T10:51:30.155Z,32.50
2018-07-27T10:54:26.868Z,33.30
2018-07-27T10:57:23.271Z,33.50
2018-07-27T11:00:20.102Z,34.20
2018-07-27T11:03:16.551Z,34.50
2018-07-27T11:06:12.710Z,33.50
2018-07-27T11:09:10.165Z,33.50
2018-07-27T11:12:06.541Z,33.60
2018-07-27T11:15:02.622Z,34.00
2018-07-27T11:17:59.395Z,34.60
2018-07-27T11:20:55.785Z,35.10
2018-07-27T11:23:51.870Z,34.90
2018-07-27T11:26:48.594Z,34.70
2018-07-27T11:29:44.978Z,34.20
2018-07-27T11:32:41.064Z,34.00
2018-07-27T11:35:37.761Z,33.50
2018-07-27T11:38:34.157Z,33.60
2018-07-27T11:41:30.890Z,33.10
2018-07-27T11:44:27.279Z,33.10
2018-07-27T11:47:23.382Z,32.90
2018-07-27T11:50:20.155Z,33.10
2018-07-27T11:53:16.170Z,33.20
2018-07-27T11:56:12.235Z,33.70
2018-07-27T11:59:08.422Z,34.00
2018-07-27T12:02:04.572Z,34.30
2018-07-27T12:05:01.396Z,34.10
2018-07-27T12:07:57.802Z,33.60
2018-07-27T12:10:54.482Z,33.70
2018-07-27T12:13:50.931Z,33.60
2018-07-27T12:16:47.650Z,33.70
2018-07-27T12:19:44.031Z,34.20
2018-07-27T12:22:40.859Z,34.30
2018-07-27T12:25:36.955Z,34.00
2018-07-27T12:28:33.038Z,34.80
2018-07-27T12:31:29.130Z,35.20
2018-07-27T12:34:25.984Z,35.10
2018-07-27T12:37:22.249Z,34.90
2018-07-27T12:40:18.823Z,35.00
2018-07-27T12:43:15.269Z,33.90
2018-07-27T12:46:11.973Z,32.70
2018-07-27T12:49:08.804Z,33.10
2018-07-27T12:52:04.883Z,33.10
2018-07-27T12:55:01.626Z,33.20
2018-07-27T12:57:58.021Z,33.60
2018-07-27T13:00:54.729Z,33.30
2018-07-27T13:03:50.862Z,33.20
2018-07-27T13:06:47.648Z,33.20
2018-07-27T13:09:44.019Z,32.40
2018-07-27T13:12:40.544Z,31.90
2018-07-27T13:15:36.916Z,32.00
2018-07-27T13:18:32.995Z,31.80
2018-07-27T13:21:29.696Z,31.50
2018-07-27T13:27:22.555Z,32.70
2018-07-27T13:30:18.933Z,32.70
2018-07-27T13:33:15.757Z,32.70
2018-07-27T13:36:12.126Z,32.60
2018-07-27T13:39:09.042Z,32.80
2018-07-27T13:42:06.300Z,33.60
2018-07-27T13:45:03.018Z,33.50
2018-07-27T13:47:59.128Z,34.00
2018-07-27T13:50:55.999Z,33.70
2018-07-27T13:53:52.081Z,33.90
2018-07-27T13:56:49.108Z,34.60
2018-07-27T13:59:46.059Z,34.60
2018-07-27T14:02:42.143Z,34.90
2018-07-27T14:05:38.772Z,35.30
2018-07-27T14:08:34.862Z,35.00
2018-07-27T14:11:31.560Z,35.60
2018-07-27T14:14:27.603Z,35.90
2018-07-27T14:17:25.744Z,35.50
2018-07-27T14:20:21.888Z,35.00
2018-07-27T14:23:18.663Z,35.30
2018-07-27T14:26:15.009Z,35.20
2018-07-27T14:29:11.728Z,34.50
2018-07-27T14:32:08.217Z,35.10
2018-07-27T14:35:05.494Z,39.20
2018-07-27T14:38:01.868Z,40.90
2018-07-27T14:40:57.948Z,41.70
2018-07-27T14:43:54.659Z,42.50
2018-07-27T14:46:51.030Z,43.40
2018-07-27T14:49:47.089Z,43.20
2018-07-27T14:52:43.297Z,43.70
2018-07-27T14:55:40.046Z,43.70
2018-07-27T15:01:32.201Z,43.50
2018-07-27T15:07:25.349Z,44.20
2018-07-27T15:10:22.178Z,44.40
2018-07-27T15:13:18.295Z,44.20
2018-07-27T15:16:15.038Z,44.30
2018-07-27T15:19:11.384Z,44.30
2018-07-27T15:22:07.466Z,44.20
2018-07-27T15:25:04.118Z,44.80
2018-07-27T15:28:00.176Z,45.30
2018-07-27T15:30:56.959Z,45.70
2018-07-27T15:33:53.359Z,45.90
2018-07-27T15:36:49.532Z,46.00
2018-07-27T15:39:46.291Z,46.10
2018-07-27T15:42:43.081Z,46.20
2018-07-27T15:45:39.208Z,46.50
2018-07-27T15:48:36.058Z,46.90
2018-07-27T15:51:32.863Z,46.50
2018-07-27T15:54:29.289Z,46.50
2018-07-27T15:57:26.106Z,46.60
2018-07-27T16:00:22.887Z,46.60
2018-07-27T16:03:21.826Z,46.70
2018-07-27T16:06:17.915Z,46.40
2018-07-27T16:09:14.025Z,46.90
2018-07-27T16:12:10.494Z,47.00
2018-07-27T16:15:06.570Z,47.10
2018-07-27T16:18:02.637Z,47.30
2018-07-27T16:20:59.053Z,47.40
2018-07-27T16:23:55.229Z,47.50
2018-07-27T16:26:51.311Z,47.60
2018-07-27T16:29:47.940Z,47.90
2018-07-27T16:32:44.556Z,48.00
2018-07-27T16:35:41.033Z,47.90
2018-07-27T16:38:37.107Z,48.10
2018-07-27T16:41:33.224Z,48.30
2018-07-27T16:44:30.331Z,48.80
2018-07-27T16:47:26.789Z,48.90
2018-07-27T16:50:24.216Z,49.00
2018-07-27T16:53:20.306Z,49.20
2018-07-27T16:56:16.399Z,49.60
2018-07-27T16:59:13.167Z,49.80
2018-07-27T17:02:10.022Z,49.50
2018-07-27T17:05:07.122Z,49.60
2018-07-27T17:08:03.228Z,49.80
2018-07-27T17:10:59.978Z,50.40
2018-07-27T17:13:56.787Z,50.70
2018-07-27T17:16:53.189Z,50.80
2018-07-27T17:19:49.255Z,50.70
2018-07-27T17:22:46.054Z,50.80
2018-07-27T17:25:42.982Z,50.30
2018-07-27T17:28:39.226Z,51.00
2018-07-27T17:31:35.316Z,50.90
2018-07-27T17:34:31.983Z,50.90
2018-07-27T17:37:28.834Z,50.50
2018-07-27T17:40:24.903Z,51.10
2018-07-27T17:43:21.440Z,51.30
2018-07-27T17:46:17.861Z,51.20
2018-07-27T17:49:13.941Z,51.10
2018-07-27T17:52:10.788Z,51.20
2018-07-27T17:55:06.958Z,51.40
2018-07-27T17:58:03.699Z,51.40
2018-07-27T18:00:59.767Z,51.20
2018-07-27T18:03:56.657Z,51.40
2018-07-27T18:06:52.779Z,51.50
2018-07-27T18:09:49.564Z,51.50
2018-07-27T18:12:45.972Z,51.40
2018-07-27T18:15:42.653Z,51.30
2018-07-27T18:18:39.407Z,51.10
2018-07-27T18:21:35.790Z,51.10
2018-07-27T18:24:32.538Z,51.60
2018-07-27T18:28:08.195Z,51.00
2018-07-27T18:31:04.614Z,50.90
2018-07-27T18:34:01.377Z,50.80
2018-07-27T18:36:58.137Z,51.00
2018-07-27T18:39:54.820Z,51.00
2018-07-27T18:42:51.949Z,50.90
2018-07-27T18:45:48.615Z,51.20
2018-07-27T18:48:45.433Z,51.20
2018-07-27T18:51:41.539Z,51.10
2018-07-27T18:54:37.751Z,51.20
2018-07-27T18:57:34.233Z,51.40
2018-07-27T19:00:30.305Z,51.40
2018-07-27T19:03:26.562Z,51.40
2018-07-27T19:06:23.228Z,51.40
2018-07-27T19:09:20.049Z,51.40
2018-07-27T19:12:16.919Z,51.50
2018-07-27T19:15:13.000Z,51.60
2018-07-27T19:18:09.700Z,51.70
2018-07-27T19:21:05.890Z,51.60
2018-07-27T19:24:02.430Z,51.00
2018-07-27T19:26:59.113Z,50.50
2018-07-27T19:29:55.190Z,50.70
2018-07-27T19:32:51.879Z,50.60
2018-07-27T19:35:48.066Z,50.60
2018-07-27T19:38:44.800Z,50.40
2018-07-27T19:41:42.554Z,50.30
2018-07-27T19:44:39.272Z,50.30
2018-07-27T19:47:35.344Z,50.50
2018-07-27T19:50:31.401Z,50.80
2018-07-27T19:56:24.200Z,51.10
2018-07-27T19:59:21.023Z,50.90
2018-07-27T20:02:17.850Z,51.00
2018-07-27T20:05:14.575Z,51.00
2018-07-27T20:08:11.303Z,51.20
2018-07-27T20:11:07.667Z,51.30
2018-07-27T20:14:03.754Z,51.40
2018-07-27T20:17:00.267Z,51.70
2018-07-27T20:19:56.328Z,51.80
2018-07-27T20:22:53.069Z,51.60
2018-07-27T20:25:49.930Z,51.40
2018-07-27T20:28:46.007Z,51.30
2018-07-27T20:31:42.086Z,51.30
2018-07-27T20:34:38.798Z,51.60
2018-07-27T20:37:35.883Z,51.80
2018-07-27T20:40:32.539Z,51.60
2018-07-27T20:43:29.606Z,51.60
2018-07-27T20:46:26.264Z,51.70
2018-07-27T20:49:23.056Z,51.70
2018-07-27T20:52:19.127Z,51.80
2018-07-27T20:55:15.280Z,51.90
2018-07-27T20:58:12.213Z,52.80
2018-07-27T21:01:08.705Z,52.20
2018-07-27T21:07:01.661Z,52.20
2018-07-27T21:09:57.738Z,52.10
2018-07-27T21:12:54.376Z,52.40
2018-07-27T21:15:51.112Z,52.40
2018-07-27T21:21:42.974Z,52.40
2018-07-27T21:24:39.715Z,52.70
2018-07-27T21:27:36.115Z,52.70
2018-07-27T21:30:32.502Z,52.90
2018-07-27T21:33:28.639Z,52.80
2018-07-27T21:36:25.083Z,53.00
2018-07-27T21:39:21.903Z,53.10
2018-07-27T21:42:17.964Z,52.90
2018-07-27T21:45:14.198Z,52.90
2018-07-27T21:51:06.747Z,53.10
2018-07-27T21:54:03.515Z,52.90
2018-07-27T21:57:00.304Z,53.00
2018-07-27T21:59:57.282Z,53.00
2018-07-27T22:02:54.017Z,53.20
2018-07-27T22:05:50.682Z,53.10
2018-07-27T22:08:47.556Z,53.40
2018-07-27T22:11:43.764Z,53.40
2018-07-27T22:14:41.420Z,53.40
2018-07-27T22:17:38.191Z,53.50
2018-07-27T22:20:35.109Z,53.50
2018-07-27T22:23:31.558Z,53.80
2018-07-27T22:26:27.715Z,54.00
2018-07-27T22:29:24.248Z,54.30
2018-07-27T22:32:20.963Z,54.40
2018-07-27T22:35:17.590Z,54.50
2018-07-27T22:38:13.729Z,54.70
2018-07-27T22:41:10.220Z,54.90
2018-07-27T22:44:07.349Z,54.80
2018-07-27T22:47:03.756Z,55.00
2018-07-27T22:52:56.729Z,55.00
2018-07-27T22:55:52.804Z,55.10
2018-07-27T22:58:49.258Z,55.40
2018-07-27T23:01:46.087Z,55.60
2018-07-27T23:04:43.007Z,55.70
2018-07-27T23:07:39.516Z,55.90
2018-07-27T23:10:35.615Z,56.10
2018-07-27T23:13:32.123Z,56.40
2018-07-27T23:16:28.284Z,56.50
2018-07-27T23:19:24.665Z,56.50
2018-07-27T23:22:20.749Z,56.60
2018-07-27T23:25:17.412Z,56.80
2018-07-27T23:28:13.563Z,57.10
2018-07-27T23:31:09.999Z,57.10
2018-07-27T23:34:06.541Z,57.20
2018-07-27T23:37:02.618Z,57.50
2018-07-27T23:39:59.036Z,57.70
2018-07-27T23:42:55.850Z,57.90
2018-07-27T23:45:52.673Z,57.90
2018-07-27T23:48:49.423Z,58.10
2018-07-27T23:51:46.272Z,58.20
2018-07-27T23:54:43.090Z,58.60
2018-07-27T23:57:39.251Z,58.80
